sensor_id;sensor_type;location;lat;lon;timestamp;pressure;altitude;pressure_sealevel;temperature;humidity
72210;BME280;60113;48.762;12.302;2023-09-19T00:00:23;96857.81;;;14.07;92.76
72210;BME280;60113;48.762;12.302;2023-09-19T00:02:57;96855.41;;;14.14;96.69
72210;BME280;60113;48.762;12.302;2023-09-19T00:05:28;96855.78;;;14.19;96.65
72210;BME280;60113;48.762;12.302;2023-09-19T00:07:56;96855.34;;;14.24;94.54
72210;BME280;60113;48.762;12.302;2023-09-19T00:10:24;96854.88;;;14.29;94.18
72210;BME280;60113;48.762;12.302;2023-09-19T00:12:53;96858.22;;;14.31;92.85
72210;BME280;60113;48.762;12.302;2023-09-19T00:15:27;96850.16;;;14.32;94.61
72210;BME280;60113;48.762;12.302;2023-09-19T00:17:56;96853.75;;;14.31;92.34
72210;BME280;60113;48.762;12.302;2023-09-19T00:20:22;96860.88;;;14.31;92.22
72210;BME280;60113;48.762;12.302;2023-09-19T00:22:50;96859.03;;;14.31;92.66
72210;BME280;60113;48.762;12.302;2023-09-19T00:25:19;96859.88;;;14.32;93.07
72210;BME280;60113;48.762;12.302;2023-09-19T00:27:46;96861.53;;;14.33;92.42
72210;BME280;60113;48.762;12.302;2023-09-19T00:30:17;96867.81;;;14.32;91.94
72210;BME280;60113;48.762;12.302;2023-09-19T00:32:47;96869.75;;;14.30;92.38
72210;BME280;60113;48.762;12.302;2023-09-19T00:35:15;96874.38;;;14.28;92.09
72210;BME280;60113;48.762;12.302;2023-09-19T00:37:41;96863.25;;;14.24;92.03
72210;BME280;60113;48.762;12.302;2023-09-19T00:40:07;96859.78;;;14.23;90.65
72210;BME280;60113;48.762;12.302;2023-09-19T00:42:43;96860.78;;;14.22;91.85
72210;BME280;60113;48.762;12.302;2023-09-19T00:45:10;96855.63;;;14.21;91.11
72210;BME280;60113;48.762;12.302;2023-09-19T00:47:42;96858.44;;;14.19;91.10
72210;BME280;60113;48.762;12.302;2023-09-19T00:50:09;96859.56;;;14.17;90.82
72210;BME280;60113;48.762;12.302;2023-09-19T00:52:37;96861.81;;;14.11;90.81
72210;BME280;60113;48.762;12.302;2023-09-19T00:55:08;96862.81;;;14.10;90.38
72210;BME280;60113;48.762;12.302;2023-09-19T00:57:34;96868.38;;;14.07;91.05
72210;BME280;60113;48.762;12.302;2023-09-19T01:00:00;96865.75;;;14.07;90.74
72210;BME280;60113;48.762;12.302;2023-09-19T01:02:31;96862.25;;;14.07;91.94
72210;BME280;60113;48.762;12.302;2023-09-19T01:04:57;96864.91;;;14.07;91.63
72210;BME280;60113;48.762;12.302;2023-09-19T01:07:23;96866.72;;;14.06;90.74
72210;BME280;60113;48.762;12.302;2023-09-19T01:09:48;96878.25;;;14.05;90.51
72210;BME280;60113;48.762;12.302;2023-09-19T01:12:22;96870.34;;;14.05;91.80
72210;BME280;60113;48.762;12.302;2023-09-19T01:14:56;96876.75;;;14.03;91.20
72210;BME280;60113;48.762;12.302;2023-09-19T01:17:35;96877.06;;;13.99;91.89
72210;BME280;60113;48.762;12.302;2023-09-19T01:28:31;96885.47;;;13.85;91.70
72210;BME280;60113;48.762;12.302;2023-09-19T01:31:02;96886.28;;;13.85;89.75
72210;BME280;60113;48.762;12.302;2023-09-19T01:33:53;96884.50;;;13.86;90.52
72210;BME280;60113;48.762;12.302;2023-09-19T01:36:16;96893.22;;;13.86;91.37
72210;BME280;60113;48.762;12.302;2023-09-19T01:38:41;96897.41;;;13.89;91.51
72210;BME280;60113;48.762;12.302;2023-09-19T01:41:11;96899.06;;;13.90;90.62
72210;BME280;60113;48.762;12.302;2023-09-19T01:43:42;96904.19;;;13.92;91.69
72210;BME280;60113;48.762;12.302;2023-09-19T01:46:30;96903.91;;;13.95;94.10
72210;BME280;60113;48.762;12.302;2023-09-19T01:54:27;96906.09;;;13.99;91.23
72210;BME280;60113;48.762;12.302;2023-09-19T01:57:20;96901.19;;;14.05;95.69
72210;BME280;60113;48.762;12.302;2023-09-19T02:00:08;96904.22;;;14.10;94.86
72210;BME280;60113;48.762;12.302;2023-09-19T02:02:38;96907.03;;;14.08;91.50
72210;BME280;60113;48.762;12.302;2023-09-19T02:05:05;96902.44;;;14.10;90.88
72210;BME280;60113;48.762;12.302;2023-09-19T02:07:31;96907.72;;;14.10;92.31
72210;BME280;60113;48.762;12.302;2023-09-19T02:09:57;96903.25;;;14.11;92.70
72210;BME280;60113;48.762;12.302;2023-09-19T02:12:25;96905.06;;;14.10;92.41
72210;BME280;60113;48.762;12.302;2023-09-19T02:14:50;96908.53;;;14.11;92.48
72210;BME280;60113;48.762;12.302;2023-09-19T02:17:16;96897.97;;;14.11;93.37
72210;BME280;60113;48.762;12.302;2023-09-19T02:19:42;96899.50;;;14.13;93.26
72210;BME280;60113;48.762;12.302;2023-09-19T02:22:07;96903.66;;;14.16;92.73
72210;BME280;60113;48.762;12.302;2023-09-19T02:24:35;96900.00;;;14.17;92.14
72210;BME280;60113;48.762;12.302;2023-09-19T02:27:01;96891.13;;;14.18;93.33
72210;BME280;60113;48.762;12.302;2023-09-19T02:29:29;96895.28;;;14.21;92.03
72210;BME280;60113;48.762;12.302;2023-09-19T02:31:55;96893.47;;;14.21;92.49
72210;BME280;60113;48.762;12.302;2023-09-19T02:34:21;96893.31;;;14.23;92.36
72210;BME280;60113;48.762;12.302;2023-09-19T02:36:47;96890.53;;;14.24;92.55
72210;BME280;60113;48.762;12.302;2023-09-19T02:39:12;96882.47;;;14.26;92.20
72210;BME280;60113;48.762;12.302;2023-09-19T02:41:38;96897.16;;;14.29;91.44
72210;BME280;60113;48.762;12.302;2023-09-19T02:44:04;96893.53;;;14.30;91.71
72210;BME280;60113;48.762;12.302;2023-09-19T02:46:33;96893.53;;;14.30;92.08
72210;BME280;60113;48.762;12.302;2023-09-19T02:48:59;96897.03;;;14.30;91.15
72210;BME280;60113;48.762;12.302;2023-09-19T02:51:24;96900.34;;;14.32;92.35
72210;BME280;60113;48.762;12.302;2023-09-19T02:53:50;96901.16;;;14.33;91.79
72210;BME280;60113;48.762;12.302;2023-09-19T02:56:18;96903.81;;;14.33;92.06
72210;BME280;60113;48.762;12.302;2023-09-19T02:58:44;96901.88;;;14.35;90.99
72210;BME280;60113;48.762;12.302;2023-09-19T03:01:12;96907.16;;;14.35;91.87
72210;BME280;60113;48.762;12.302;2023-09-19T03:03:38;96911.75;;;14.33;91.10
72210;BME280;60113;48.762;12.302;2023-09-19T03:06:06;96904.66;;;14.33;91.51
72210;BME280;60113;48.762;12.302;2023-09-19T03:08:34;96917.03;;;14.33;91.42
72210;BME280;60113;48.762;12.302;2023-09-19T03:11:03;96915.22;;;14.33;91.11
72210;BME280;60113;48.762;12.302;2023-09-19T03:13:29;96920.66;;;14.32;90.83
72210;BME280;60113;48.762;12.302;2023-09-19T03:15:56;96909.25;;;14.31;90.96
72210;BME280;60113;48.762;12.302;2023-09-19T03:18:26;96922.47;;;14.31;91.96
72210;BME280;60113;48.762;12.302;2023-09-19T03:20:55;96924.81;;;14.34;91.70
72210;BME280;60113;48.762;12.302;2023-09-19T03:23:21;96925.34;;;14.38;90.56
72210;BME280;60113;48.762;12.302;2023-09-19T03:25:47;96924.06;;;14.42;90.39
72210;BME280;60113;48.762;12.302;2023-09-19T03:28:13;96924.59;;;14.46;91.62
72210;BME280;60113;48.762;12.302;2023-09-19T03:30:38;96939.19;;;14.50;90.81
72210;BME280;60113;48.762;12.302;2023-09-19T03:33:04;96940.84;;;14.51;91.51
72210;BME280;60113;48.762;12.302;2023-09-19T03:35:30;96952.78;;;14.55;92.28
72210;BME280;60113;48.762;12.302;2023-09-19T03:37:56;96943.41;;;14.61;91.74
72210;BME280;60113;48.762;12.302;2023-09-19T03:40:21;96943.97;;;14.65;91.07
72210;BME280;60113;48.762;12.302;2023-09-19T03:42:48;96939.34;;;14.67;90.94
72210;BME280;60113;48.762;12.302;2023-09-19T03:45:14;96948.78;;;14.69;90.55
72210;BME280;60113;48.762;12.302;2023-09-19T03:47:41;96951.94;;;14.73;90.97
72210;BME280;60113;48.762;12.302;2023-09-19T03:50:07;96958.78;;;14.75;90.47
72210;BME280;60113;48.762;12.302;2023-09-19T03:52:33;96948.03;;;14.77;90.84
72210;BME280;60113;48.762;12.302;2023-09-19T03:54:59;96953.22;;;14.79;90.45
72210;BME280;60113;48.762;12.302;2023-09-19T03:57:25;96947.06;;;14.78;91.39
72210;BME280;60113;48.762;12.302;2023-09-19T03:59:50;96952.50;;;14.77;90.20
72210;BME280;60113;48.762;12.302;2023-09-19T04:02:18;96950.84;;;14.75;91.95
72210;BME280;60113;48.762;12.302;2023-09-19T04:04:52;96950.00;;;14.75;91.50
72210;BME280;60113;48.762;12.302;2023-09-19T04:07:18;96964.22;;;14.74;90.03
72210;BME280;60113;48.762;12.302;2023-09-19T04:09:48;96957.38;;;14.71;91.29
72210;BME280;60113;48.762;12.302;2023-09-19T04:12:14;96961.19;;;14.69;90.69
72210;BME280;60113;48.762;12.302;2023-09-19T04:14:42;96958.53;;;14.69;90.00
72210;BME280;60113;48.762;12.302;2023-09-19T04:17:07;96958.38;;;14.70;89.72
72210;BME280;60113;48.762;12.302;2023-09-19T04:19:33;96956.72;;;14.69;89.85
72210;BME280;60113;48.762;12.302;2023-09-19T04:21:58;96965.31;;;14.71;89.42
72210;BME280;60113;48.762;12.302;2023-09-19T04:24:24;96953.47;;;14.75;90.33
72210;BME280;60113;48.762;12.302;2023-09-19T04:26:49;96963.78;;;14.79;89.48
72210;BME280;60113;48.762;12.302;2023-09-19T04:29:14;96965.97;;;14.83;89.19
72210;BME280;60113;48.762;12.302;2023-09-19T04:31:40;96969.13;;;14.87;88.38
72210;BME280;60113;48.762;12.302;2023-09-19T04:34:09;96972.47;;;14.89;89.69
72210;BME280;60113;48.762;12.302;2023-09-19T04:36:35;96971.34;;;14.92;88.73
72210;BME280;60113;48.762;12.302;2023-09-19T04:39:03;96971.03;;;14.95;89.16
72210;BME280;60113;48.762;12.302;2023-09-19T04:41:30;96971.03;;;14.95;88.77
72210;BME280;60113;48.762;12.302;2023-09-19T04:43:56;96977.31;;;14.94;89.06
72210;BME280;60113;48.762;12.302;2023-09-19T04:46:21;96973.97;;;14.92;88.77
72210;BME280;60113;48.762;12.302;2023-09-19T04:48:46;96979.41;;;14.90;89.07
72210;BME280;60113;48.762;12.302;2023-09-19T04:51:13;96980.41;;;14.89;88.94
72210;BME280;60113;48.762;12.302;2023-09-19T04:53:40;96982.91;;;14.91;89.17
72210;BME280;60113;48.762;12.302;2023-09-19T04:56:06;96987.91;;;14.94;88.95
72210;BME280;60113;48.762;12.302;2023-09-19T04:58:33;96987.75;;;14.95;89.13
72210;BME280;60113;48.762;12.302;2023-09-19T05:00:59;96999.97;;;14.96;89.16
72210;BME280;60113;48.762;12.302;2023-09-19T05:03:24;96996.22;;;14.99;88.68
72210;BME280;60113;48.762;12.302;2023-09-19T05:05:49;97003.31;;;14.98;89.10
72210;BME280;60113;48.762;12.302;2023-09-19T05:08:15;96996.22;;;14.99;88.64
72210;BME280;60113;48.762;12.302;2023-09-19T05:10:40;96999.38;;;15.03;88.50
72210;BME280;60113;48.762;12.302;2023-09-19T05:13:06;97000.22;;;15.03;88.54
72210;BME280;60113;48.762;12.302;2023-09-19T05:15:35;96995.75;;;15.04;89.53
72210;BME280;60113;48.762;12.302;2023-09-19T05:18:01;96999.91;;;15.06;89.31
72210;BME280;60113;48.762;12.302;2023-09-19T05:20:26;97007.53;;;15.09;89.16
72210;BME280;60113;48.762;12.302;2023-09-19T05:23:04;97008.09;;;15.13;89.52
72210;BME280;60113;48.762;12.302;2023-09-19T05:25:35;97010.72;;;15.13;88.86
72210;BME280;60113;48.762;12.302;2023-09-19T05:28:05;97013.38;;;15.13;89.37
72210;BME280;60113;48.762;12.302;2023-09-19T05:30:32;97016.03;;;15.13;90.34
72210;BME280;60113;48.762;12.302;2023-09-19T05:32:58;97021.31;;;15.13;90.11
72210;BME280;60113;48.762;12.302;2023-09-19T05:35:24;97021.31;;;15.13;90.62
72210;BME280;60113;48.762;12.302;2023-09-19T05:37:51;97029.91;;;15.15;90.07
72210;BME280;60113;48.762;12.302;2023-09-19T05:40:19;97033.41;;;15.16;89.96
72210;BME280;60113;48.762;12.302;2023-09-19T05:42:45;97035.22;;;15.15;90.22
72210;BME280;60113;48.762;12.302;2023-09-19T05:45:11;97034.25;;;15.16;90.48
72210;BME280;60113;48.762;12.302;2023-09-19T05:47:44;97034.25;;;15.16;91.47
72210;BME280;60113;48.762;12.302;2023-09-19T05:50:11;97036.59;;;15.19;91.15
72210;BME280;60113;48.762;12.302;2023-09-19T05:52:37;97040.75;;;15.22;91.07
72210;BME280;60113;48.762;12.302;2023-09-19T05:55:06;97040.28;;;15.27;93.21
72210;BME280;60113;48.762;12.302;2023-09-19T05:57:33;97048.75;;;15.30;91.41
72210;BME280;60113;48.762;12.302;2023-09-19T05:59:59;97039.69;;;15.33;91.53
72210;BME280;60113;48.762;12.302;2023-09-19T06:02:24;97044.81;;;15.34;91.81
72210;BME280;60113;48.762;12.302;2023-09-19T06:04:54;97048.66;;;15.40;91.32
72210;BME280;60113;48.762;12.302;2023-09-19T06:07:21;97040.25;;;15.45;92.68
72210;BME280;60113;48.762;12.302;2023-09-19T06:09:47;97047.06;;;15.47;92.24
72210;BME280;60113;48.762;12.302;2023-09-19T06:12:12;97052.72;;;15.53;91.34
72210;BME280;60113;48.762;12.302;2023-09-19T06:14:42;97055.75;;;15.58;90.71
72210;BME280;60113;48.762;12.302;2023-09-19T06:17:08;97048.94;;;15.55;92.71
72210;BME280;60113;48.762;12.302;2023-09-19T06:19:34;97053.88;;;15.50;93.04
72210;BME280;60113;48.762;12.302;2023-09-19T06:21:59;97049.50;;;15.41;93.27
72210;BME280;60113;48.762;12.302;2023-09-19T06:24:25;97055.09;;;15.37;93.22
72210;BME280;60113;48.762;12.302;2023-09-19T06:26:51;97053.56;;;15.35;92.28
72210;BME280;60113;48.762;12.302;2023-09-19T06:29:18;97060.84;;;15.33;93.56
72210;BME280;60113;48.762;12.302;2023-09-19T06:31:43;97056.56;;;15.32;94.17
72210;BME280;60113;48.762;12.302;2023-09-19T06:34:10;97054.72;;;15.32;93.16
72210;BME280;60113;48.762;12.302;2023-09-19T06:36:35;97051.41;;;15.30;94.55
72210;BME280;60113;48.762;12.302;2023-09-19T06:39:00;97057.81;;;15.28;94.66
72210;BME280;60113;48.762;12.302;2023-09-19T06:41:26;97066.75;;;15.27;94.39
72210;BME280;60113;48.762;12.302;2023-09-19T06:43:51;97064.66;;;15.30;93.71
72210;BME280;60113;48.762;12.302;2023-09-19T06:46:18;97069.47;;;15.53;94.43
72210;BME280;60113;48.762;12.302;2023-09-19T06:48:44;97069.84;;;15.85;96.43
72210;BME280;60113;48.762;12.302;2023-09-19T06:51:09;97074.72;;;16.16;98.01
72210;BME280;60113;48.762;12.302;2023-09-19T06:53:35;97076.03;;;16.47;99.76
72210;BME280;60113;48.762;12.302;2023-09-19T06:56:02;97082.13;;;16.82;100.00
72210;BME280;60113;48.762;12.302;2023-09-19T06:58:27;97077.28;;;17.12;99.93
72210;BME280;60113;48.762;12.302;2023-09-19T07:00:53;97071.50;;;17.34;97.73
72210;BME280;60113;48.762;12.302;2023-09-19T07:03:19;97085.94;;;17.48;99.17
72210;BME280;60113;48.762;12.302;2023-09-19T07:05:47;97086.28;;;17.61;97.82
72210;BME280;60113;48.762;12.302;2023-09-19T07:08:13;97095.06;;;17.79;99.14
72210;BME280;60113;48.762;12.302;2023-09-19T07:10:40;97102.22;;;17.95;98.59
72210;BME280;60113;48.762;12.302;2023-09-19T07:13:06;97088.72;;;18.05;92.12
72210;BME280;60113;48.762;12.302;2023-09-19T07:15:37;97098.84;;;18.34;97.38
72210;BME280;60113;48.762;12.302;2023-09-19T07:18:07;97107.09;;;18.56;95.52
72210;BME280;60113;48.762;12.302;2023-09-19T07:20:36;97111.59;;;18.56;92.40
72210;BME280;60113;48.762;12.302;2023-09-19T07:23:02;97114.72;;;18.68;95.30
72210;BME280;60113;48.762;12.302;2023-09-19T07:25:28;97113.97;;;18.82;92.94
72210;BME280;60113;48.762;12.302;2023-09-19T07:27:57;97116.84;;;18.72;86.32
72210;BME280;60113;48.762;12.302;2023-09-19T07:30:25;97113.69;;;18.69;91.22
72210;BME280;60113;48.762;12.302;2023-09-19T07:32:51;97121.25;;;18.48;89.85
72210;BME280;60113;48.762;12.302;2023-09-19T07:35:17;97125.09;;;18.37;87.50
72210;BME280;60113;48.762;12.302;2023-09-19T07:37:45;97128.75;;;18.36;86.93
72210;BME280;60113;48.762;12.302;2023-09-19T07:40:14;97126.22;;;18.52;86.87
72210;BME280;60113;48.762;12.302;2023-09-19T07:42:40;97107.25;;;18.63;85.80
72210;BME280;60113;48.762;12.302;2023-09-19T07:45:07;97114.88;;;18.66;87.79
72210;BME280;60113;48.762;12.302;2023-09-19T07:47:33;97108.81;;;18.81;84.45
72210;BME280;60113;48.762;12.302;2023-09-19T07:49:59;97116.44;;;18.92;82.58
72210;BME280;60113;48.762;12.302;2023-09-19T07:52:27;97117.69;;;19.13;86.43
72210;BME280;60113;48.762;12.302;2023-09-19T07:54:53;97120.19;;;19.38;83.94
72210;BME280;60113;48.762;12.302;2023-09-19T07:57:18;97123.53;;;19.40;87.38
72210;BME280;60113;48.762;12.302;2023-09-19T07:59:45;97127.38;;;19.61;89.06
72210;BME280;60113;48.762;12.302;2023-09-19T08:02:10;97127.47;;;19.91;87.39
72210;BME280;60113;48.762;12.302;2023-09-19T08:04:44;97128.31;;;19.92;82.65
72210;BME280;60113;48.762;12.302;2023-09-19T08:07:12;97134.22;;;19.79;83.65
72210;BME280;60113;48.762;12.302;2023-09-19T08:09:38;97139.88;;;19.60;83.85
72210;BME280;60113;48.762;12.302;2023-09-19T08:12:04;97141.16;;;19.41;81.29
72210;BME280;60113;48.762;12.302;2023-09-19T08:14:30;97147.28;;;19.18;78.32
72210;BME280;60113;48.762;12.302;2023-09-19T08:16:59;97145.19;;;18.97;78.14
72210;BME280;60113;48.762;12.302;2023-09-19T08:19:25;97154.25;;;18.79;78.17
72210;BME280;60113;48.762;12.302;2023-09-19T08:21:57;97145.69;;;18.60;77.00
72210;BME280;60113;48.762;12.302;2023-09-19T08:24:27;97158.50;;;18.48;79.39
72210;BME280;60113;48.762;12.302;2023-09-19T08:26:54;97155.88;;;18.40;78.74
72210;BME280;60113;48.762;12.302;2023-09-19T08:29:20;97154.56;;;18.28;78.92
72210;BME280;60113;48.762;12.302;2023-09-19T08:31:45;97158.88;;;18.20;78.37
72210;BME280;60113;48.762;12.302;2023-09-19T08:34:13;97158.06;;;18.20;79.52
72210;BME280;60113;48.762;12.302;2023-09-19T08:36:38;97167.50;;;18.14;79.50
72210;BME280;60113;48.762;12.302;2023-09-19T08:39:04;97158.38;;;18.17;79.83
72210;BME280;60113;48.762;12.302;2023-09-19T08:41:29;97172.00;;;18.30;80.20
72210;BME280;60113;48.762;12.302;2023-09-19T08:43:59;97163.81;;;18.48;79.38
72210;BME280;60113;48.762;12.302;2023-09-19T08:46:30;97157.28;;;18.68;77.74
72210;BME280;60113;48.762;12.302;2023-09-19T08:49:08;97150.34;;;18.98;77.69
72210;BME280;60113;48.762;12.302;2023-09-19T08:51:41;97163.63;;;19.47;76.61
72210;BME280;60113;48.762;12.302;2023-09-19T08:54:24;97154.63;;;19.95;77.27
72210;BME280;60113;48.762;12.302;2023-09-19T08:56:53;97151.41;;;20.38;77.37
72210;BME280;60113;48.762;12.302;2023-09-19T08:59:21;97151.34;;;20.77;82.02
72210;BME280;60113;48.762;12.302;2023-09-19T09:01:49;97136.50;;;21.19;78.97
72210;BME280;60113;48.762;12.302;2023-09-19T09:04:18;97159.97;;;21.61;80.24
72210;BME280;60113;48.762;12.302;2023-09-19T09:06:45;97146.91;;;21.73;81.23
72210;BME280;60113;48.762;12.302;2023-09-19T09:09:14;97151.59;;;21.49;80.29
72210;BME280;60113;48.762;12.302;2023-09-19T09:11:40;97155.34;;;21.33;79.62
72210;BME280;60113;48.762;12.302;2023-09-19T09:14:06;97157.44;;;21.01;78.48
72210;BME280;60113;48.762;12.302;2023-09-19T09:16:32;97150.50;;;20.76;72.89
72210;BME280;60113;48.762;12.302;2023-09-19T09:18:58;97157.16;;;20.65;75.86
72210;BME280;60113;48.762;12.302;2023-09-19T09:21:26;97157.22;;;20.72;72.45
72210;BME280;60113;48.762;12.302;2023-09-19T09:23:52;97149.31;;;21.09;71.64
72210;BME280;60113;48.762;12.302;2023-09-19T09:29:03;97149.66;;;21.21;71.18
72210;BME280;60113;48.762;12.302;2023-09-19T09:31:28;97146.06;;;21.14;74.74
72210;BME280;60113;48.762;12.302;2023-09-19T09:33:55;97157.34;;;20.94;73.76
72210;BME280;60113;48.762;12.302;2023-09-19T09:36:38;97157.03;;;20.73;69.67
72210;BME280;60113;48.762;12.302;2023-09-19T09:39:04;97153.66;;;20.49;72.02
72210;BME280;60113;48.762;12.302;2023-09-19T09:41:50;97146.06;;;20.23;72.16
72210;BME280;60113;48.762;12.302;2023-09-19T09:44:17;97152.06;;;20.02;72.14
72210;BME280;60113;48.762;12.302;2023-09-19T09:46:46;97146.50;;;19.88;72.56
72210;BME280;60113;48.762;12.302;2023-09-19T09:49:35;97136.28;;;19.77;72.32
72210;BME280;60113;48.762;12.302;2023-09-19T09:54:32;97146.03;;;19.38;71.40
72210;BME280;60113;48.762;12.302;2023-09-19T09:57:03;97155.44;;;19.17;72.16
72210;BME280;60113;48.762;12.302;2023-09-19T09:59:55;97169.50;;;18.94;72.76
72210;BME280;60113;48.762;12.302;2023-09-19T10:02:35;97187.25;;;18.61;76.48
72210;BME280;60113;48.762;12.302;2023-09-19T10:05:19;97209.06;;;18.32;83.63
72210;BME280;60113;48.762;12.302;2023-09-19T10:07:54;97205.19;;;17.76;85.06
72210;BME280;60113;48.762;12.302;2023-09-19T10:10:31;97230.66;;;17.00;90.85
72210;BME280;60113;48.762;12.302;2023-09-19T10:13:10;97237.91;;;16.37;91.80
72210;BME280;60113;48.762;12.302;2023-09-19T10:15:42;97243.28;;;15.91;91.87
72210;BME280;60113;48.762;12.302;2023-09-19T10:18:25;97250.94;;;15.47;98.68
72210;BME280;60113;48.762;12.302;2023-09-19T10:20:52;97258.63;;;15.12;96.08
72210;BME280;60113;48.762;12.302;2023-09-19T10:23:19;97264.16;;;14.91;100.00
72210;BME280;60113;48.762;12.302;2023-09-19T10:25:51;97262.06;;;14.75;99.03
72210;BME280;60113;48.762;12.302;2023-09-19T10:28:18;97257.63;;;14.66;100.00
72210;BME280;60113;48.762;12.302;2023-09-19T10:30:56;97265.41;;;14.77;100.00
72210;BME280;60113;48.762;12.302;2023-09-19T10:33:24;97258.19;;;14.79;100.00
72210;BME280;60113;48.762;12.302;2023-09-19T10:35:57;97258.66;;;15.03;95.27
72210;BME280;60113;48.762;12.302;2023-09-19T10:38:26;97254.47;;;15.38;92.97
72210;BME280;60113;48.762;12.302;2023-09-19T10:40:54;97244.94;;;15.73;91.29
72210;BME280;60113;48.762;12.302;2023-09-19T10:43:25;97234.59;;;16.17;90.98
72210;BME280;60113;48.762;12.302;2023-09-19T10:45:51;97242.22;;;16.38;90.62
72210;BME280;60113;48.762;12.302;2023-09-19T10:48:20;97248.66;;;16.35;87.03
72210;BME280;60113;48.762;12.302;2023-09-19T10:51:09;97267.41;;;16.42;86.28
72210;BME280;60113;48.762;12.302;2023-09-19T10:53:48;97263.19;;;16.49;86.16
72210;BME280;60113;48.762;12.302;2023-09-19T10:56:23;97263.94;;;16.68;85.76
72210;BME280;60113;48.762;12.302;2023-09-19T10:59:05;97269.91;;;16.44;87.50
72210;BME280;60113;48.762;12.302;2023-09-19T11:01:47;97274.75;;;16.48;86.75
72210;BME280;60113;48.762;12.302;2023-09-19T11:04:38;97262.97;;;16.43;87.61
72210;BME280;60113;48.762;12.302;2023-09-19T11:09:55;97266.97;;;16.47;86.51
72210;BME280;60113;48.762;12.302;2023-09-19T11:14:54;97255.50;;;16.65;83.97
72210;BME280;60113;48.762;12.302;2023-09-19T11:30:41;97242.00;;;16.84;80.70
72210;BME280;60113;48.762;12.302;2023-09-19T11:36:01;97241.09;;;17.29;78.97
72210;BME280;60113;48.762;12.302;2023-09-19T11:38:57;97236.16;;;17.42;77.02
72210;BME280;60113;48.762;12.302;2023-09-19T11:46:30;97221.16;;;18.09;76.30
72210;BME280;60113;48.762;12.302;2023-09-19T11:49:05;97228.66;;;18.39;77.02
72210;BME280;60113;48.762;12.302;2023-09-19T11:51:42;97237.47;;;18.65;77.63
72210;BME280;60113;48.762;12.302;2023-09-19T11:54:11;97230.28;;;18.82;77.36
72210;BME280;60113;48.762;12.302;2023-09-19T11:56:43;97233.88;;;18.97;76.12
72210;BME280;60113;48.762;12.302;2023-09-19T11:59:09;97236.22;;;18.92;74.06
72210;BME280;60113;48.762;12.302;2023-09-19T12:01:37;97234.41;;;18.93;72.01
72210;BME280;60113;48.762;12.302;2023-09-19T12:04:08;97229.38;;;18.98;74.50
72210;BME280;60113;48.762;12.302;2023-09-19T12:06:33;97233.84;;;19.14;75.81
72210;BME280;60113;48.762;12.302;2023-09-19T12:08:59;97219.19;;;19.18;75.97
72210;BME280;60113;48.762;12.302;2023-09-19T12:11:31;97222.66;;;19.27;75.26
72210;BME280;60113;48.762;12.302;2023-09-19T12:14:01;97220.44;;;19.39;72.70
72210;BME280;60113;48.762;12.302;2023-09-19T12:16:27;97222.94;;;19.41;72.56
72210;BME280;60113;48.762;12.302;2023-09-19T12:18:55;97208.22;;;19.53;72.71
72210;BME280;60113;48.762;12.302;2023-09-19T12:21:30;97214.66;;;19.59;72.55
72210;BME280;60113;48.762;12.302;2023-09-19T12:24:05;97211.44;;;19.72;71.72
72210;BME280;60113;48.762;12.302;2023-09-19T12:26:38;97208.47;;;19.90;72.33
72210;BME280;60113;48.762;12.302;2023-09-19T12:29:04;97209.97;;;20.16;72.46
72210;BME280;60113;48.762;12.302;2023-09-19T12:31:30;97202.16;;;20.15;67.94
72210;BME280;60113;48.762;12.302;2023-09-19T12:34:01;97194.13;;;20.15;70.33
72210;BME280;60113;48.762;12.302;2023-09-19T12:36:26;97198.94;;;20.19;70.51
72210;BME280;60113;48.762;12.302;2023-09-19T12:38:56;97207.66;;;20.13;71.97
72210;BME280;60113;48.762;12.302;2023-09-19T12:41:25;97195.72;;;20.24;70.45
72210;BME280;60113;48.762;12.302;2023-09-19T12:43:54;97203.75;;;20.39;70.98
72210;BME280;60113;48.762;12.302;2023-09-19T12:46:23;97203.88;;;20.46;68.49
72210;BME280;60113;48.762;12.302;2023-09-19T12:49:19;97201.41;;;20.74;70.08
72210;BME280;60113;48.762;12.302;2023-09-19T12:51:48;97191.31;;;21.00;67.47
72210;BME280;60113;48.762;12.302;2023-09-19T12:54:14;97189.38;;;21.24;70.42
72210;BME280;60113;48.762;12.302;2023-09-19T12:56:44;97185.06;;;21.45;71.26
72210;BME280;60113;48.762;12.302;2023-09-19T12:59:12;97188.53;;;21.60;69.31
72210;BME280;60113;48.762;12.302;2023-09-19T13:01:39;97188.84;;;21.72;65.16
72210;BME280;60113;48.762;12.302;2023-09-19T13:04:17;97189.97;;;21.63;63.68
72210;BME280;60113;48.762;12.302;2023-09-19T13:06:44;97181.25;;;21.17;60.53
72210;BME280;60113;48.762;12.302;2023-09-19T13:09:11;97185.16;;;21.36;67.71
72210;BME280;60113;48.762;12.302;2023-09-19T13:11:38;97180.81;;;21.51;70.40
72210;BME280;60113;48.762;12.302;2023-09-19T13:14:18;97187.97;;;21.65;67.15
72210;BME280;60113;48.762;12.302;2023-09-19T13:17:00;97177.56;;;21.92;64.76
72210;BME280;60113;48.762;12.302;2023-09-19T13:19:43;97183.03;;;22.06;63.40
72210;BME280;60113;48.762;12.302;2023-09-19T13:22:36;97172.34;;;22.06;62.13
72210;BME280;60113;48.762;12.302;2023-09-19T13:25:04;97176.94;;;21.90;65.01
72210;BME280;60113;48.762;12.302;2023-09-19T13:27:32;97183.13;;;21.76;66.42
72210;BME280;60113;48.762;12.302;2023-09-19T13:29:58;97167.78;;;21.63;65.67
72210;BME280;60113;48.762;12.302;2023-09-19T13:32:23;97154.00;;;21.81;68.90
72210;BME280;60113;48.762;12.302;2023-09-19T13:34:48;97170.22;;;22.01;70.13
72210;BME280;60113;48.762;12.302;2023-09-19T13:37:14;97160.38;;;21.80;59.93
72210;BME280;60113;48.762;12.302;2023-09-19T13:39:41;97160.50;;;21.93;63.10
72210;BME280;60113;48.762;12.302;2023-09-19T13:42:13;97156.94;;;21.86;62.42
72210;BME280;60113;48.762;12.302;2023-09-19T13:44:38;97157.06;;;21.78;67.76